sensor_id;sensor_type;location;lat;lon;timestamp;pressure;altitude;pressure_sealevel;temperature;humidity
70206;BME280;57593;55.896;37.396;2023-02-26T00:00:23;97021.94;;;3.39;100.00
70206;BME280;57593;55.896;37.396;2023-02-26T00:00:53;97018.06;;;3.49;100.00
70206;BME280;57593;55.896;37.396;2023-02-26T00:01:27;97024.53;;;3.55;100.00
70206;BME280;57593;55.896;37.396;2023-02-26T00:01:58;97019.91;;;3.49;100.00
70206;BME280;57593;55.896;37.396;2023-02-26T00:02:31;97017.84;;;3.38;100.00
70206;BME280;57593;55.896;37.396;2023-02-26T00:03:02;97017.56;;;3.44;100.00
70206;BME280;57593;55.896;37.396;2023-02-26T00:03:32;97014.56;;;3.41;100.00
70206;BME280;57593;55.896;37.396;2023-02-26T00:04:05;97012.97;;;3.37;100.00
70206;BME280;57593;55.896;37.396;2023-02-26T00:04:36;97018.75;;;3.30;100.00
70206;BME280;57593;55.896;37.396;2023-02-26T00:05:08;97015.72;;;3.44;100.00
70206;BME280;57593;55.896;37.396;2023-02-26T00:05:38;97001.00;;;3.36;100.00
70206;BME280;57593;55.896;37.396;2023-02-26T00:06:09;97012.88;;;3.33;100.00
70206;BME280;57593;55.896;37.396;2023-02-26T00:06:40;97015.63;;;3.40;100.00
70206;BME280;57593;55.896;37.396;2023-02-26T00:07:24;97002.31;;;3.46;100.00
70206;BME280;57593;55.896;37.396;2023-02-26T00:07:58;97008.38;;;3.50;100.00
70206;BME280;57593;55.896;37.396;2023-02-26T00:08:29;97002.16;;;3.54;100.00
70206;BME280;57593;55.896;37.396;2023-02-26T00:09:01;96993.22;;;3.55;100.00
70206;BME280;57593;55.896;37.396;2023-02-26T00:09:33;96985.31;;;3.52;100.00
70206;BME280;57593;55.896;37.396;2023-02-26T00:10:06;96985.41;;;3.55;100.00
70206;BME280;57593;55.896;37.396;2023-02-26T00:10:37;96985.88;;;3.61;100.00
70206;BME280;57593;55.896;37.396;2023-02-26T00:11:09;96983.94;;;3.58;100.00
70206;BME280;57593;55.896;37.396;2023-02-26T00:11:40;96979.75;;;3.53;100.00
70206;BME280;57593;55.896;37.396;2023-02-26T00:12:11;96979.00;;;3.53;100.00
70206;BME280;57593;55.896;37.396;2023-02-26T00:12:42;96972.59;;;3.50;100.00
70206;BME280;57593;55.896;37.396;2023-02-26T00:13:13;96975.75;;;3.40;100.00
70206;BME280;57593;55.896;37.396;2023-02-26T00:13:44;96975.59;;;3.33;100.00
70206;BME280;57593;55.896;37.396;2023-02-26T00:14:15;96964.47;;;3.36;100.00
70206;BME280;57593;55.896;37.396;2023-02-26T00:14:47;96972.91;;;3.29;100.00
70206;BME280;57593;55.896;37.396;2023-02-26T00:15:18;96974.06;;;3.32;100.00
70206;BME280;57593;55.896;37.396;2023-02-26T00:15:50;96978.69;;;3.38;100.00
70206;BME280;57593;55.896;37.396;2023-02-26T00:17:36;96965.84;;;3.30;100.00
70206;BME280;57593;55.896;37.396;2023-02-26T00:18:12;96967.34;;;3.31;100.00
70206;BME280;57593;55.896;37.396;2023-02-26T00:18:45;96968.16;;;3.35;100.00
70206;BME280;57593;55.896;37.396;2023-02-26T00:19:16;96960.78;;;3.37;100.00
70206;BME280;57593;55.896;37.396;2023-02-26T00:19:46;96965.16;;;3.33;100.00
70206;BME280;57593;55.896;37.396;2023-02-26T00:20:17;96960.44;;;3.38;100.00
70206;BME280;57593;55.896;37.396;2023-02-26T00:20:49;96952.50;;;3.51;100.00
70206;BME280;57593;55.896;37.396;2023-02-26T00:21:21;96945.53;;;3.39;100.00
70206;BME280;57593;55.896;37.396;2023-02-26T00:21:52;96950.94;;;3.30;100.00
70206;BME280;57593;55.896;37.396;2023-02-26T00:22:23;96943.59;;;3.36;100.00
70206;BME280;57593;55.896;37.396;2023-02-26T00:22:54;96952.44;;;3.31;100.00
70206;BME280;57593;55.896;37.396;2023-02-26T00:23:25;96944.44;;;3.40;100.00
70206;BME280;57593;55.896;37.396;2023-02-26T00:23:56;96942.16;;;3.38;100.00
70206;BME280;57593;55.896;37.396;2023-02-26T00:24:27;96944.84;;;3.42;100.00
70206;BME280;57593;55.896;37.396;2023-02-26T00:24:58;96946.09;;;3.48;100.00
70206;BME280;57593;55.896;37.396;2023-02-26T00:25:28;96939.78;;;3.49;100.00
70206;BME280;57593;55.896;37.396;2023-02-26T00:25:59;96944.44;;;3.40;100.00
70206;BME280;57593;55.896;37.396;2023-02-26T00:26:30;96934.22;;;3.51;100.00
70206;BME280;57593;55.896;37.396;2023-02-26T00:27:01;96941.50;;;3.41;100.00
70206;BME280;57593;55.896;37.396;2023-02-26T00:27:32;96941.16;;;3.43;100.00
70206;BME280;57593;55.896;37.396;2023-02-26T00:28:02;96931.25;;;3.33;100.00
70206;BME280;57593;55.896;37.396;2023-02-26T00:28:33;96936.84;;;3.35;100.00
70206;BME280;57593;55.896;37.396;2023-02-26T00:29:04;96933.84;;;3.33;100.00
70206;BME280;57593;55.896;37.396;2023-02-26T00:29:35;96928.00;;;3.39;100.00
70206;BME280;57593;55.896;37.396;2023-02-26T00:30:09;96924.50;;;3.32;100.00
70206;BME280;57593;55.896;37.396;2023-02-26T00:30:40;96928.91;;;3.47;100.00
70206;BME280;57593;55.896;37.396;2023-02-26T00:31:13;96919.16;;;3.44;100.00
70206;BME280;57593;55.896;37.396;2023-02-26T00:31:44;96925.84;;;3.41;100.00
70206;BME280;57593;55.896;37.396;2023-02-26T00:32:15;96915.31;;;3.38;100.00
70206;BME280;57593;55.896;37.396;2023-02-26T00:32:49;96919.50;;;3.42;100.00
70206;BME280;57593;55.896;37.396;2023-02-26T00:33:20;96918.41;;;3.44;100.00
70206;BME280;57593;55.896;37.396;2023-02-26T00:33:55;96917.09;;;3.34;100.00
70206;BME280;57593;55.896;37.396;2023-02-26T00:34:26;96914.06;;;3.32;100.00
70206;BME280;57593;55.896;37.396;2023-02-26T00:34:57;96918.53;;;3.31;100.00
70206;BME280;57593;55.896;37.396;2023-02-26T00:35:28;96913.88;;;3.40;100.00
70206;BME280;57593;55.896;37.396;2023-02-26T00:36:08;96912.69;;;3.38;100.00
70206;BME280;57593;55.896;37.396;2023-02-26T00:38:15;96913.72;;;3.33;100.00
70206;BME280;57593;55.896;37.396;2023-02-26T00:39:43;96906.38;;;3.39;100.00
70206;BME280;57593;55.896;37.396;2023-02-26T00:40:52;96910.31;;;3.29;100.00
70206;BME280;57593;55.896;37.396;2023-02-26T00:41:25;96900.53;;;3.26;100.00
70206;BME280;57593;55.896;37.396;2023-02-26T00:41:55;96904.66;;;3.27;100.00
70206;BME280;57593;55.896;37.396;2023-02-26T00:42:26;96907.75;;;3.33;100.00
70206;BME280;57593;55.896;37.396;2023-02-26T00:42:57;96898.69;;;3.27;100.00
70206;BME280;57593;55.896;37.396;2023-02-26T00:43:28;96906.91;;;3.29;100.00
70206;BME280;57593;55.896;37.396;2023-02-26T00:43:59;96899.88;;;3.29;100.00
70206;BME280;57593;55.896;37.396;2023-02-26T00:44:31;96896.81;;;3.27;100.00
70206;BME280;57593;55.896;37.396;2023-02-26T00:45:02;96900.13;;;3.24;100.00
70206;BME280;57593;55.896;37.396;2023-02-26T00:45:34;96901.41;;;3.14;100.00
70206;BME280;57593;55.896;37.396;2023-02-26T00:47:08;96882.81;;;3.16;100.00
70206;BME280;57593;55.896;37.396;2023-02-26T00:50:04;96879.53;;;3.19;100.00
70206;BME280;57593;55.896;37.396;2023-02-26T00:50:45;96882.19;;;3.22;100.00
70206;BME280;57593;55.896;37.396;2023-02-26T00:52:04;96877.25;;;3.17;100.00
70206;BME280;57593;55.896;37.396;2023-02-26T00:54:17;96859.97;;;3.09;100.00
70206;BME280;57593;55.896;37.396;2023-02-26T00:54:48;96861.59;;;3.17;100.00
70206;BME280;57593;55.896;37.396;2023-02-26T00:55:19;96862.00;;;3.19;100.00
70206;BME280;57593;55.896;37.396;2023-02-26T00:55:50;96864.91;;;3.14;100.00
70206;BME280;57593;55.896;37.396;2023-02-26T00:56:21;96869.84;;;3.19;100.00
70206;BME280;57593;55.896;37.396;2023-02-26T00:56:53;96858.78;;;3.06;100.00
70206;BME280;57593;55.896;37.396;2023-02-26T00:57:24;96864.44;;;3.09;100.00
70206;BME280;57593;55.896;37.396;2023-02-26T00:57:54;96861.88;;;3.12;100.00
70206;BME280;57593;55.896;37.396;2023-02-26T00:58:25;96857.47;;;3.16;100.00
70206;BME280;57593;55.896;37.396;2023-02-26T00:58:55;96859.69;;;3.14;100.00
70206;BME280;57593;55.896;37.396;2023-02-26T00:59:27;96874.47;;;3.26;100.00
70206;BME280;57593;55.896;37.396;2023-02-26T00:59:58;96869.16;;;3.22;100.00
70206;BME280;57593;55.896;37.396;2023-02-26T01:00:29;96873.69;;;3.26;100.00
70206;BME280;57593;55.896;37.396;2023-02-26T01:01:00;96879.13;;;3.36;100.00
70206;BME280;57593;55.896;37.396;2023-02-26T01:01:30;96883.94;;;3.34;100.00
70206;BME280;57593;55.896;37.396;2023-02-26T01:02:01;96885.38;;;3.32;100.00
70206;BME280;57593;55.896;37.396;2023-02-26T01:02:33;96887.91;;;3.28;100.00
70206;BME280;57593;55.896;37.396;2023-02-26T01:03:04;96886.25;;;3.20;100.00
70206;BME280;57593;55.896;37.396;2023-02-26T01:03:35;96891.94;;;3.26;100.00
70206;BME280;57593;55.896;37.396;2023-02-26T01:04:07;96892.72;;;3.26;100.00
70206;BME280;57593;55.896;37.396;2023-02-26T01:04:38;96894.84;;;3.20;100.00
70206;BME280;57593;55.896;37.396;2023-02-26T01:05:09;96895.00;;;3.28;100.00
70206;BME280;57593;55.896;37.396;2023-02-26T01:05:41;96895.50;;;3.17;100.00
70206;BME280;57593;55.896;37.396;2023-02-26T01:06:17;96910.47;;;3.20;100.00
70206;BME280;57593;55.896;37.396;2023-02-26T01:06:55;96901.69;;;3.29;100.00
70206;BME280;57593;55.896;37.396;2023-02-26T01:07:27;96896.56;;;3.32;100.00
70206;BME280;57593;55.896;37.396;2023-02-26T01:08:14;96898.41;;;3.32;100.00
70206;BME280;57593;55.896;37.396;2023-02-26T01:08:52;96896.91;;;3.31;100.00
70206;BME280;57593;55.896;37.396;2023-02-26T01:09:31;96897.16;;;3.26;100.00
70206;BME280;57593;55.896;37.396;2023-02-26T01:10:03;96896.13;;;3.30;100.00
70206;BME280;57593;55.896;37.396;2023-02-26T01:10:34;96889.84;;;3.31;100.00
70206;BME280;57593;55.896;37.396;2023-02-26T01:11:05;96887.84;;;3.24;100.00
70206;BME280;57593;55.896;37.396;2023-02-26T01:11:37;96896.88;;;3.11;100.00
70206;BME280;57593;55.896;37.396;2023-02-26T01:12:10;96884.47;;;3.24;100.00
70206;BME280;57593;55.896;37.396;2023-02-26T01:12:46;96888.66;;;3.29;100.00
70206;BME280;57593;55.896;37.396;2023-02-26T01:13:17;96882.63;;;3.24;100.00
70206;BME280;57593;55.896;37.396;2023-02-26T01:13:49;96880.56;;;3.34;100.00
70206;BME280;57593;55.896;37.396;2023-02-26T01:14:20;96885.38;;;3.32;100.00
70206;BME280;57593;55.896;37.396;2023-02-26T01:14:51;96879.41;;;3.31;100.00
70206;BME280;57593;55.896;37.396;2023-02-26T01:15:23;96875.88;;;3.23;100.00
70206;BME280;57593;55.896;37.396;2023-02-26T01:16:07;96877.66;;;3.19;100.00
70206;BME280;57593;55.896;37.396;2023-02-26T01:17:45;96866.88;;;3.21;100.00
70206;BME280;57593;55.896;37.396;2023-02-26T01:18:32;96868.00;;;3.20;100.00
70206;BME280;57593;55.896;37.396;2023-02-26T01:19:17;96876.22;;;3.22;100.00
70206;BME280;57593;55.896;37.396;2023-02-26T01:19:57;96868.91;;;3.28;100.00
70206;BME280;57593;55.896;37.396;2023-02-26T01:20:53;96868.13;;;3.27;100.00
70206;BME280;57593;55.896;37.396;2023-02-26T01:21:31;96861.03;;;3.08;100.00
70206;BME280;57593;55.896;37.396;2023-02-26T01:23:03;96852.13;;;3.09;100.00
70206;BME280;57593;55.896;37.396;2023-02-26T01:23:39;96855.81;;;3.08;100.00
70206;BME280;57593;55.896;37.396;2023-02-26T01:24:14;96854.47;;;3.14;100.00
70206;BME280;57593;55.896;37.396;2023-02-26T01:24:47;96860.84;;;3.17;100.00
70206;BME280;57593;55.896;37.396;2023-02-26T01:25:34;96857.06;;;3.14;100.00
70206;BME280;57593;55.896;37.396;2023-02-26T01:26:13;96855.22;;;3.15;100.00
70206;BME280;57593;55.896;37.396;2023-02-26T01:26:45;96862.97;;;3.11;100.00
70206;BME280;57593;55.896;37.396;2023-02-26T01:27:20;96850.03;;;2.99;100.00
70206;BME280;57593;55.896;37.396;2023-02-26T01:27:51;96853.16;;;3.04;100.00
70206;BME280;57593;55.896;37.396;2023-02-26T01:28:23;96857.97;;;3.02;100.00
70206;BME280;57593;55.896;37.396;2023-02-26T01:28:54;96859.97;;;3.09;100.00
70206;BME280;57593;55.896;37.396;2023-02-26T01:29:25;96851.38;;;3.09;100.00
70206;BME280;57593;55.896;37.396;2023-02-26T01:29:55;96854.75;;;3.09;100.00
70206;BME280;57593;55.896;37.396;2023-02-26T01:30:26;96847.41;;;3.15;100.00
70206;BME280;57593;55.896;37.396;2023-02-26T01:31:01;96846.56;;;3.11;100.00
70206;BME280;57593;55.896;37.396;2023-02-26T01:32:00;96853.94;;;3.24;100.00
70206;BME280;57593;55.896;37.396;2023-02-26T01:32:44;96847.53;;;3.22;100.00
70206;BME280;57593;55.896;37.396;2023-02-26T01:33:35;96845.22;;;3.17;100.00
70206;BME280;57593;55.896;37.396;2023-02-26T01:35:12;96841.91;;;3.20;100.00
70206;BME280;57593;55.896;37.396;2023-02-26T01:35:52;96836.69;;;3.20;100.00
70206;BME280;57593;55.896;37.396;2023-02-26T01:36:31;96841.28;;;3.27;100.00
70206;BME280;57593;55.896;37.396;2023-02-26T01:37:15;96839.59;;;3.15;100.00
70206;BME280;57593;55.896;37.396;2023-02-26T01:38:03;96839.09;;;3.09;100.00
70206;BME280;57593;55.896;37.396;2023-02-26T01:38:52;96846.69;;;3.18;100.00
70206;BME280;57593;55.896;37.396;2023-02-26T01:39:46;96829.97;;;2.99;100.00
70206;BME280;57593;55.896;37.396;2023-02-26T01:40:34;96827.56;;;3.10;100.00
70206;BME280;57593;55.896;37.396;2023-02-26T01:42:21;96825.16;;;3.01;100.00
70206;BME280;57593;55.896;37.396;2023-02-26T01:42:56;96829.28;;;3.02;100.00
70206;BME280;57593;55.896;37.396;2023-02-26T01:43:47;96827.75;;;3.01;100.00
70206;BME280;57593;55.896;37.396;2023-02-26T01:44:29;96835.81;;;3.12;100.00
70206;BME280;57593;55.896;37.396;2023-02-26T01:48:11;96820.69;;;3.02;100.00
70206;BME280;57593;55.896;37.396;2023-02-26T01:48:53;96822.81;;;2.96;100.00
70206;BME280;57593;55.896;37.396;2023-02-26T01:49:24;96819.59;;;3.03;100.00
70206;BME280;57593;55.896;37.396;2023-02-26T01:49:55;96808.28;;;3.15;100.00
70206;BME280;57593;55.896;37.396;2023-02-26T01:50:26;96820.16;;;3.12;100.00
70206;BME280;57593;55.896;37.396;2023-02-26T01:51:02;96820.44;;;3.07;100.00
70206;BME280;57593;55.896;37.396;2023-02-26T01:51:51;96821.13;;;3.04;100.00
70206;BME280;57593;55.896;37.396;2023-02-26T01:53:18;96820.56;;;2.95;100.00
70206;BME280;57593;55.896;37.396;2023-02-26T01:53:49;96804.09;;;3.10;100.00
70206;BME280;57593;55.896;37.396;2023-02-26T01:54:22;96806.75;;;2.94;100.00
70206;BME280;57593;55.896;37.396;2023-02-26T01:54:54;96810.59;;;3.00;100.00
70206;BME280;57593;55.896;37.396;2023-02-26T01:55:26;96811.16;;;3.10;100.00
70206;BME280;57593;55.896;37.396;2023-02-26T01:56:02;96813.19;;;3.00;100.00
70206;BME280;57593;55.896;37.396;2023-02-26T01:56:34;96805.94;;;3.10;100.00
70206;BME280;57593;55.896;37.396;2023-02-26T01:57:15;96807.06;;;3.09;100.00
70206;BME280;57593;55.896;37.396;2023-02-26T01:57:48;96796.53;;;3.05;100.00
70206;BME280;57593;55.896;37.396;2023-02-26T01:58:20;96794.69;;;3.05;100.00
70206;BME280;57593;55.896;37.396;2023-02-26T01:58:52;96809.00;;;2.96;100.00
70206;BME280;57593;55.896;37.396;2023-02-26T01:59:23;96806.22;;;3.04;100.00
70206;BME280;57593;55.896;37.396;2023-02-26T01:59:54;96795.97;;;2.96;100.00
70206;BME280;57593;55.896;37.396;2023-02-26T02:00:29;96799.59;;;2.91;100.00
70206;BME280;57593;55.896;37.396;2023-02-26T02:01:00;96802.66;;;2.93;100.00
70206;BME280;57593;55.896;37.396;2023-02-26T02:01:32;96810.13;;;2.95;100.00
70206;BME280;57593;55.896;37.396;2023-02-26T02:02:05;96807.94;;;2.97;100.00
70206;BME280;57593;55.896;37.396;2023-02-26T02:02:36;96805.03;;;3.02;100.00
70206;BME280;57593;55.896;37.396;2023-02-26T02:03:07;96792.56;;;3.11;100.00
70206;BME280;57593;55.896;37.396;2023-02-26T02:03:40;96797.09;;;3.14;100.00
70206;BME280;57593;55.896;37.396;2023-02-26T02:04:13;96801.06;;;3.08;100.00
70206;BME280;57593;55.896;37.396;2023-02-26T02:04:45;96793.88;;;3.01;100.00
70206;BME280;57593;55.896;37.396;2023-02-26T02:06:13;96797.56;;;3.00;100.00
70206;BME280;57593;55.896;37.396;2023-02-26T02:06:33;96797.91;;;2.99;100.00
70206;BME280;57593;55.896;37.396;2023-02-26T02:07:05;96805.72;;;2.99;100.00
70206;BME280;57593;55.896;37.396;2023-02-26T02:07:36;96796.13;;;3.03;100.00
70206;BME280;57593;55.896;37.396;2023-02-26T02:08:07;96791.25;;;3.01;100.00
70206;BME280;57593;55.896;37.396;2023-02-26T02:08:38;96785.69;;;3.03;100.00
70206;BME280;57593;55.896;37.396;2023-02-26T02:09:09;96787.34;;;3.11;100.00
70206;BME280;57593;55.896;37.396;2023-02-26T02:09:40;96786.53;;;3.07;100.00
70206;BME280;57593;55.896;37.396;2023-02-26T02:10:12;96790.22;;;3.06;100.00
70206;BME280;57593;55.896;37.396;2023-02-26T02:10:46;96791.06;;;3.10;100.00
70206;BME280;57593;55.896;37.396;2023-02-26T02:11:18;96782.34;;;3.02;100.00
70206;BME280;57593;55.896;37.396;2023-02-26T02:12:07;96779.44;;;3.08;100.00
70206;BME280;57593;55.896;37.396;2023-02-26T02:13:12;96772.88;;;3.14;100.00
70206;BME280;57593;55.896;37.396;2023-02-26T02:14:21;96781.84;;;2.97;100.00
70206;BME280;57593;55.896;37.396;2023-02-26T02:16:55;96768.53;;;2.82;100.00
70206;BME280;57593;55.896;37.396;2023-02-26T02:18:31;96773.19;;;2.73;100.00
70206;BME280;57593;55.896;37.396;2023-02-26T02:23:51;96780.31;;;2.76;100.00
70206;BME280;57593;55.896;37.396;2023-02-26T02:26:40;96774.69;;;2.74;100.00
70206;BME280;57593;55.896;37.396;2023-02-26T02:27:18;96776.88;;;2.72;100.00
70206;BME280;57593;55.896;37.396;2023-02-26T02:30:09;96765.84;;;2.79;100.00
70206;BME280;57593;55.896;37.396;2023-02-26T02:31:24;96782.72;;;2.85;100.00
70206;BME280;57593;55.896;37.396;2023-02-26T02:31:56;96778.53;;;2.80;100.00
70206;BME280;57593;55.896;37.396;2023-02-26T02:32:35;96776.06;;;2.87;100.00
70206;BME280;57593;55.896;37.396;2023-02-26T02:33:17;96778.75;;;2.91;100.00
70206;BME280;57593;55.896;37.396;2023-02-26T02:33:53;96770.13;;;2.87;100.00
70206;BME280;57593;55.896;37.396;2023-02-26T02:34:31;96781.97;;;2.84;100.00
70206;BME280;57593;55.896;37.396;2023-02-26T02:35:13;96782.72;;;2.85;100.00
70206;BME280;57593;55.896;37.396;2023-02-26T02:35:58;96780.13;;;2.85;100.00
70206;BME280;57593;55.896;37.396;2023-02-26T02:36:55;96765.94;;;2.82;100.00
70206;BME280;57593;55.896;37.396;2023-02-26T02:37:38;96772.38;;;2.88;100.00
70206;BME280;57593;55.896;37.396;2023-02-26T02:38:16;96772.97;;;2.82;100.00
70206;BME280;57593;55.896;37.396;2023-02-26T02:38:53;96774.69;;;2.74;100.00
70206;BME280;57593;55.896;37.396;2023-02-26T02:39:36;96765.94;;;2.82;100.00
70206;BME280;57593;55.896;37.396;2023-02-26T02:40:18;96776.47;;;2.90;100.00
70206;BME280;57593;55.896;37.396;2023-02-26T02:40:55;96774.56;;;2.86;100.00
70206;BME280;57593;55.896;37.396;2023-02-26T02:41:32;96785.81;;;2.91;100.00
70206;BME280;57593;55.896;37.396;2023-02-26T02:42:29;96776.88;;;2.72;100.00
70206;BME280;57593;55.896;37.396;2023-02-26T02:43:06;96767.00;;;2.81;100.00
70206;BME280;57593;55.896;37.396;2023-02-26T02:43:39;96780.06;;;2.81;100.00
70206;BME280;57593;55.896;37.396;2023-02-26T02:44:14;96782.25;;;2.79;100.00
70206;BME280;57593;55.896;37.396;2023-02-26T02:44:55;96782.38;;;2.67;100.00
70206;BME280;57593;55.896;37.396;2023-02-26T02:45:33;96768.59;;;2.86;100.00
70206;BME280;57593;55.896;37.396;2023-02-26T02:46:10;96764.56;;;2.88;100.00
70206;BME280;57593;55.896;37.396;2023-02-26T02:46:44;96768.53;;;2.82;100.00
70206;BME280;57593;55.896;37.396;2023-02-26T02:47:18;96771.59;;;2.88;100.00
70206;BME280;57593;55.896;37.396;2023-02-26T02:47:56;96757.56;;;2.93;100.00
70206;BME280;57593;55.896;37.396;2023-02-26T02:48:32;96765.31;;;2.89;100.00
70206;BME280;57593;55.896;37.396;2023-02-26T02:49:14;96768.38;;;2.75;100.00
70206;BME280;57593;55.896;37.396;2023-02-26T02:49:51;96762.09;;;2.76;100.00
70206;BME280;57593;55.896;37.396;2023-02-26T02:50:34;96772.63;;;2.83;100.00
70206;BME280;57593;55.896;37.396;2023-02-26T02:51:10;96768.88;;;2.81;100.00
70206;BME280;57593;55.896;37.396;2023-02-26T02:51:59;96764.63;;;2.92;100.00
70206;BME280;57593;55.896;37.396;2023-02-26T02:52:40;96764.22;;;2.90;100.00
70206;BME280;57593;55.896;37.396;2023-02-26T02:53:25;96760.31;;;3.00;100.00
70206;BME280;57593;55.896;37.396;2023-02-26T02:54:02;96767.22;;;2.92;100.00
70206;BME280;57593;55.896;37.396;2023-02-26T02:54:52;96753.22;;;3.00;100.00
70206;BME280;57593;55.896;37.396;2023-02-26T02:55:27;96757.28;;;2.98;100.00
70206;BME280;57593;55.896;37.396;2023-02-26T02:56:08;96769.16;;;2.95;100.00
70206;BME280;57593;55.896;37.396;2023-02-26T02:56:42;96762.00;;;2.92;100.00
70206;BME280;57593;55.896;37.396;2023-02-26T02:57:28;96755.22;;;2.87;100.00
70206;BME280;57593;55.896;37.396;2023-02-26T02:58:07;96749.47;;;2.98;100.00
70206;BME280;57593;55.896;37.396;2023-02-26T02:58:48;96758.09;;;3.02;100.00
70206;BME280;57593;55.896;37.396;2023-02-26T02:59:38;96753.56;;;2.99;100.00
70206;BME280;57593;55.896;37.396;2023-02-26T03:00:13;96760.72;;;2.82;100.00
70206;BME280;57593;55.896;37.396;2023-02-26T03:00:51;96752.06;;;2.98;100.00
70206;BME280;57593;55.896;37.396;2023-02-26T03:01:26;96744.38;;;3.05;100.00
70206;BME280;57593;55.896;37.396;2023-02-26T03:02:03;96747.75;;;3.05;100.00
70206;BME280;57593;55.896;37.396;2023-02-26T03:03:26;96753.34;;;2.88;100.00
70206;BME280;57593;55.896;37.396;2023-02-26T03:04:09;96745.28;;;2.93;100.00
70206;BME280;57593;55.896;37.396;2023-02-26T03:04:41;96751.59;;;2.92;100.00
70206;BME280;57593;55.896;37.396;2023-02-26T03:05:13;96740.13;;;2.97;100.00
70206;BME280;57593;55.896;37.396;2023-02-26T03:05:44;96746.88;;;2.98;100.00
70206;BME280;57593;55.896;37.396;2023-02-26T03:06:15;96737.81;;;2.92;100.00
70206;BME280;57593;55.896;37.396;2023-02-26T03:06:47;96748.78;;;2.81;100.00
70206;BME280;57593;55.896;37.396;2023-02-26T03:07:22;96749.13;;;2.99;100.00
70206;BME280;57593;55.896;37.396;2023-02-26T03:08:00;96749.31;;;2.91;100.00
70206;BME280;57593;55.896;37.396;2023-02-26T03:08:36;96754.72;;;2.82;100.00
70206;BME280;57593;55.896;37.396;2023-02-26T03:09:09;96738.16;;;2.90;100.00
70206;BME280;57593;55.896;37.396;2023-02-26T03:09:45;96745.19;;;2.90;100.00
70206;BME280;57593;55.896;37.396;2023-02-26T03:10:16;96747.22;;;2.96;100.00
70206;BME280;57593;55.896;37.396;2023-02-26T03:10:47;96740.88;;;2.78;100.00
70206;BME280;57593;55.896;37.396;2023-02-26T03:11:19;96744.66;;;3.00;100.00
70206;BME280;57593;55.896;37.396;2023-02-26T03:11:50;96745.41;;;2.81;100.00
70206;BME280;57593;55.896;37.396;2023-02-26T03:12:21;96735.59;;;2.94;100.00
70206;BME280;57593;55.896;37.396;2023-02-26T03:12:52;96740.41;;;2.92;100.00
70206;BME280;57593;55.896;37.396;2023-02-26T03:13:24;96744.03;;;2.87;100.00
70206;BME280;57593;55.896;37.396;2023-02-26T03:14:03;96734.78;;;2.90;100.00
70206;BME280;57593;55.896;37.396;2023-02-26T03:14:38;96727.94;;;3.01;100.00
70206;BME280;57593;55.896;37.396;2023-02-26T03:15:09;96734.03;;;3.09;100.00
70206;BME280;57593;55.896;37.396;2023-02-26T03:17:42;96740.28;;;3.04;100.00
70206;BME280;57593;55.896;37.396;2023-02-26T03:20:12;96736.91;;;3.03;100.00
70206;BME280;57593;55.896;37.396;2023-02-26T03:23:21;96727.84;;;2.97;100.00
70206;BME280;57593;55.896;37.396;2023-02-26T03:24:08;96733.00;;;3.13;100.00
70206;BME280;57593;55.896;37.396;2023-02-26T03:25:32;96736.34;;;2.94;100.00
70206;BME280;57593;55.896;37.396;2023-02-26T03:26:10;96733.88;;;3.01;100.00
70206;BME280;57593;55.896;37.396;2023-02-26T03:27:00;96728.38;;;3.06;100.00
70206;BME280;57593;55.896;37.396;2023-02-26T03:27:45;96727.59;;;3.02;100.00
70206;BME280;57593;55.896;37.396;2023-02-26T03:30:15;96723.50;;;3.05;100.00
70206;BME280;57593;55.896;37.396;2023-02-26T03:31:14;96736.16;;;3.03;100.00
70206;BME280;57593;55.896;37.396;2023-02-26T03:31:46;96733.19;;;3.04;100.00
70206;BME280;57593;55.896;37.396;2023-02-26T03:33:50;96728.88;;;2.93;100.00
70206;BME280;57593;55.896;37.396;2023-02-26T03:35:14;96727.44;;;2.95;100.00
70206;BME280;57593;55.896;37.396;2023-02-26T03:36:39;96720.09;;;2.81;100.00
70206;BME280;57593;55.896;37.396;2023-02-26T03:37:33;96722.09;;;2.68;100.00
70206;BME280;57593;55.896;37.396;2023-02-26T03:38:10;96716.06;;;2.84;100.00
70206;BME280;57593;55.896;37.396;2023-02-26T03:38:56;96719.81;;;2.86;100.00
70206;BME280;57593;55.896;37.396;2023-02-26T03:39:34;96723.09;;;2.83;100.00
70206;BME280;57593;55.896;37.396;2023-02-26T03:40:15;96733.47;;;2.80;100.00
70206;BME280;57593;55.896;37.396;2023-02-26T03:40:52;96724.97;;;2.83;100.00
70206;BME280;57593;55.896;37.396;2023-02-26T03:41:33;96728.28;;;2.99;100.00
70206;BME280;57593;55.896;37.396;2023-02-26T03:43:02;96725.72;;;3.03;100.00
70206;BME280;57593;55.896;37.396;2023-02-26T03:44:02;96722.97;;;2.96;100.00
70206;BME280;57593;55.896;37.396;2023-02-26T03:44:42;96721.28;;;2.84;100.00
70206;BME280;57593;55.896;37.396;2023-02-26T03:45:30;96724.16;;;2.98;100.00
70206;BME280;57593;55.896;37.396;2023-02-26T03:46:04;96727.78;;;2.94;100.00
70206;BME280;57593;55.896;37.396;2023-02-26T03:46:43;96735.66;;;2.97;100.00
70206;BME280;57593;55.896;37.396;2023-02-26T03:47:14;96731.41;;;3.09;100.00
70206;BME280;57593;55.896;37.396;2023-02-26T03:47:50;96728.19;;;2.96;100.00
70206;BME280;57593;55.896;37.396;2023-02-26T03:48:27;96722.38;;;3.02;100.00
70206;BME280;57593;55.896;37.396;2023-02-26T03:49:08;96729.50;;;3.05;100.00
70206;BME280;57593;55.896;37.396;2023-02-26T03:50:24;96743.28;;;3.06;100.00
70206;BME280;57593;55.896;37.396;2023-02-26T03:51:15;96739.69;;;3.14;100.00
70206;BME280;57593;55.896;37.396;2023-02-26T03:52:00;96736.16;;;3.03;100.00
70206;BME280;57593;55.896;37.396;2023-02-26T03:52:57;96735.41;;;3.02;100.00
70206;BME280;57593;55.896;37.396;2023-02-26T03:53:59;96740.75;;;2.90;100.00
70206;BME280;57593;55.896;37.396;2023-02-26T03:54:46;96741.22;;;2.96;100.00